sensor_id;sensor_type;location;lat;lon;timestamp;pressure;altitude;pressure_sealevel;temperature;humidity
26859;BME280;14429;48.346;16.338;2023-05-19T00:01:28;100476.38;;;16.06;59.83
26859;BME280;14429;48.346;16.338;2023-05-19T00:03:55;100477.22;;;16.07;59.75
26859;BME280;14429;48.346;16.338;2023-05-19T00:06:22;100470.38;;;16.03;60.05
26859;BME280;14429;48.346;16.338;2023-05-19T00:08:49;100471.22;;;16.03;60.03
26859;BME280;14429;48.346;16.338;2023-05-19T00:11:17;100469.28;;;16.05;59.81
26859;BME280;14429;48.346;16.338;2023-05-19T00:13:43;100462.91;;;15.95;59.88
26859;BME280;14429;48.346;16.338;2023-05-19T00:16:10;100465.84;;;16.03;59.97
26859;BME280;14429;48.346;16.338;2023-05-19T00:18:37;100459.63;;;16.03;60.04
26859;BME280;14429;48.346;16.338;2023-05-19T00:21:02;100464.16;;;16.02;60.14
26859;BME280;14429;48.346;16.338;2023-05-19T00:23:28;100469.28;;;16.05;60.09
26859;BME280;14429;48.346;16.338;2023-05-19T00:25:53;100469.03;;;16.08;60.00
26859;BME280;14429;48.346;16.338;2023-05-19T00:28:19;100471.00;;;16.06;60.04
26859;BME280;14429;48.346;16.338;2023-05-19T00:30:44;100467.56;;;16.04;59.90
26859;BME280;14429;48.346;16.338;2023-05-19T00:33:09;100467.56;;;16.04;59.79
26859;BME280;14429;48.346;16.338;2023-05-19T00:35:36;100463.38;;;15.90;58.63
26859;BME280;14429;48.346;16.338;2023-05-19T00:38:02;100459.22;;;15.96;59.82
26859;BME280;14429;48.346;16.338;2023-05-19T00:40:28;100451.91;;;15.98;60.14
26859;BME280;14429;48.346;16.338;2023-05-19T00:42:55;100455.31;;;16.00;59.97
26859;BME280;14429;48.346;16.338;2023-05-19T00:45:20;100456.19;;;16.01;60.18
26859;BME280;14429;48.346;16.338;2023-05-19T00:47:46;100448.00;;;16.02;60.13
26859;BME280;14429;48.346;16.338;2023-05-19T00:50:11;100449.09;;;16.00;60.08
26859;BME280;14429;48.346;16.338;2023-05-19T00:52:38;100451.69;;;16.01;60.13
26859;BME280;14429;48.346;16.338;2023-05-19T00:55:05;100452.78;;;15.99;60.08
26859;BME280;14429;48.346;16.338;2023-05-19T00:57:30;100453.16;;;16.05;59.90
26859;BME280;14429;48.346;16.338;2023-05-19T00:59:56;100450.78;;;16.01;60.04
26859;BME280;14429;48.346;16.338;2023-05-19T01:02:21;100451.69;;;16.01;60.05
26859;BME280;14429;48.346;16.338;2023-05-19T01:04:47;100442.00;;;15.99;60.23
26859;BME280;14429;48.346;16.338;2023-05-19T01:07:15;100441.88;;;16.00;59.98
26859;BME280;14429;48.346;16.338;2023-05-19T01:09:41;100437.47;;;15.99;60.20
26859;BME280;14429;48.346;16.338;2023-05-19T01:12:07;100444.31;;;16.03;59.96
26859;BME280;14429;48.346;16.338;2023-05-19T01:14:33;100436.50;;;16.00;60.08
26859;BME280;14429;48.346;16.338;2023-05-19T01:17:03;100440.16;;;15.99;60.02
26859;BME280;14429;48.346;16.338;2023-05-19T01:19:46;100435.78;;;15.98;60.17
26859;BME280;14429;48.346;16.338;2023-05-19T01:22:26;100437.47;;;15.99;60.01
26859;BME280;14429;48.346;16.338;2023-05-19T01:28:30;100440.31;;;15.98;60.28
26859;BME280;14429;48.346;16.338;2023-05-19T01:30:58;100436.72;;;15.97;60.13
26859;BME280;14429;48.346;16.338;2023-05-19T01:33:25;100430.63;;;15.95;60.27
26859;BME280;14429;48.346;16.338;2023-05-19T01:35:54;100434.31;;;15.94;60.36
26859;BME280;14429;48.346;16.338;2023-05-19T01:38:20;100439.69;;;15.94;60.12
26859;BME280;14429;48.346;16.338;2023-05-19T01:40:48;100439.69;;;15.94;60.14
26859;BME280;14429;48.346;16.338;2023-05-19T01:43:18;100442.47;;;15.93;60.06
26859;BME280;14429;48.346;16.338;2023-05-19T01:45:44;100433.56;;;15.92;60.36
26859;BME280;14429;48.346;16.338;2023-05-19T01:48:12;100432.06;;;15.89;60.47
26859;BME280;14429;48.346;16.338;2023-05-19T01:50:38;100432.84;;;15.91;60.22
26859;BME280;14429;48.346;16.338;2023-05-19T01:53:04;100432.84;;;15.91;60.38
26859;BME280;14429;48.346;16.338;2023-05-19T01:55:29;100425.72;;;15.90;60.34
26859;BME280;14429;48.346;16.338;2023-05-19T01:58:04;100437.34;;;15.90;60.34
26859;BME280;14429;48.346;16.338;2023-05-19T02:00:42;100437.34;;;15.90;60.48
26859;BME280;14429;48.346;16.338;2023-05-19T02:03:20;100439.16;;;15.90;60.38
26859;BME280;14429;48.346;16.338;2023-05-19T02:05:55;100436.47;;;15.90;60.50
26859;BME280;14429;48.346;16.338;2023-05-19T02:08:26;100439.28;;;15.88;60.23
26859;BME280;14429;48.346;16.338;2023-05-19T02:10:56;100442.13;;;15.87;60.47
26859;BME280;14429;48.346;16.338;2023-05-19T02:13:23;100439.53;;;15.85;60.40
26859;BME280;14429;48.346;16.338;2023-05-19T02:15:55;100432.56;;;15.83;60.60
26859;BME280;14429;48.346;16.338;2023-05-19T02:18:24;100426.94;;;15.86;60.52
26859;BME280;14429;48.346;16.338;2023-05-19T02:20:50;100421.31;;;15.89;60.38
26859;BME280;14429;48.346;16.338;2023-05-19T02:23:15;100431.59;;;15.84;60.59
26859;BME280;14429;48.346;16.338;2023-05-19T02:25:41;100425.97;;;15.87;60.40
26859;BME280;14429;48.346;16.338;2023-05-19T02:28:06;100429.63;;;15.86;60.41
26859;BME280;14429;48.346;16.338;2023-05-19T02:30:32;100426.22;;;15.84;60.40
26859;BME280;14429;48.346;16.338;2023-05-19T02:32:57;100431.47;;;15.85;60.50
26859;BME280;14429;48.346;16.338;2023-05-19T02:35:24;100424.25;;;15.86;60.50
26859;BME280;14429;48.346;16.338;2023-05-19T02:37:49;100427.91;;;15.85;60.34
26859;BME280;14429;48.346;16.338;2023-05-19T02:40:16;100422.78;;;15.82;60.54
26859;BME280;14429;48.346;16.338;2023-05-19T02:42:41;100422.78;;;15.82;60.57
26859;BME280;14429;48.346;16.338;2023-05-19T02:45:07;100419.13;;;15.83;60.39
26859;BME280;14429;48.346;16.338;2023-05-19T02:47:33;100417.41;;;15.82;60.44
26859;BME280;14429;48.346;16.338;2023-05-19T02:49:59;100413.75;;;15.83;60.48
26859;BME280;14429;48.346;16.338;2023-05-19T02:52:25;100417.16;;;15.85;60.38
26859;BME280;14429;48.346;16.338;2023-05-19T02:54:51;100421.06;;;15.81;60.60
26859;BME280;14429;48.346;16.338;2023-05-19T02:57:16;100415.69;;;15.81;60.38
26859;BME280;14429;48.346;16.338;2023-05-19T02:59:42;100416.44;;;15.83;60.33
26859;BME280;14429;48.346;16.338;2023-05-19T03:02:07;100419.38;;;15.80;60.63
26859;BME280;14429;48.346;16.338;2023-05-19T03:04:32;100413.38;;;15.76;60.63
26859;BME280;14429;48.346;16.338;2023-05-19T03:06:58;100415.91;;;15.78;60.61
26859;BME280;14429;48.346;16.338;2023-05-19T03:09:26;100418.50;;;15.79;60.55
26859;BME280;14429;48.346;16.338;2023-05-19T03:11:51;100422.91;;;15.80;60.47
26859;BME280;14429;48.346;16.338;2023-05-19T03:14:17;100418.38;;;15.81;60.39
26859;BME280;14429;48.346;16.338;2023-05-19T03:16:42;100428.38;;;15.79;60.52
26859;BME280;14429;48.346;16.338;2023-05-19T03:19:08;100426.44;;;15.81;60.35
26859;BME280;14429;48.346;16.338;2023-05-19T03:21:33;100430.97;;;15.80;60.24
26859;BME280;14429;48.346;16.338;2023-05-19T03:23:59;100425.59;;;15.80;60.39
26859;BME280;14429;48.346;16.338;2023-05-19T03:26:26;100432.81;;;15.80;60.24
26859;BME280;14429;48.346;16.338;2023-05-19T03:28:52;100430.13;;;15.80;60.31
26859;BME280;14429;48.346;16.338;2023-05-19T03:31:17;100423.75;;;15.81;60.45
26859;BME280;14429;48.346;16.338;2023-05-19T03:33:43;100425.47;;;15.82;60.51
26859;BME280;14429;48.346;16.338;2023-05-19T03:36:08;100435.28;;;15.83;60.24
26859;BME280;14429;48.346;16.338;2023-05-19T03:38:33;100437.97;;;15.83;60.32
26859;BME280;14429;48.346;16.338;2023-05-19T03:40:59;100433.53;;;15.82;60.31
26859;BME280;14429;48.346;16.338;2023-05-19T03:43:26;100437.19;;;15.81;60.38
26859;BME280;14429;48.346;16.338;2023-05-19T03:45:51;100433.66;;;15.80;60.32
26859;BME280;14429;48.346;16.338;2023-05-19T03:48:16;100430.13;;;15.80;60.29
26859;BME280;14429;48.346;16.338;2023-05-19T03:50:42;100437.19;;;15.81;60.37
26859;BME280;14429;48.346;16.338;2023-05-19T03:53:07;100440.88;;;15.80;60.33
26859;BME280;14429;48.346;16.338;2023-05-19T03:55:33;100440.75;;;15.81;60.11
26859;BME280;14429;48.346;16.338;2023-05-19T03:57:58;100437.19;;;15.81;60.28
26859;BME280;14429;48.346;16.338;2023-05-19T04:00:25;100430.13;;;15.80;60.17
26859;BME280;14429;48.346;16.338;2023-05-19T04:02:50;100437.19;;;15.81;60.18
26859;BME280;14429;48.346;16.338;2023-05-19T04:05:16;100445.63;;;15.76;60.30
26859;BME280;14429;48.346;16.338;2023-05-19T04:07:41;100449.91;;;15.79;60.14
26859;BME280;14429;48.346;16.338;2023-05-19T04:10:07;100449.03;;;15.78;60.27
26859;BME280;14429;48.346;16.338;2023-05-19T04:12:33;100442.81;;;15.78;60.19
26859;BME280;14429;48.346;16.338;2023-05-19T04:15:05;100443.66;;;15.78;60.17
26859;BME280;14429;48.346;16.338;2023-05-19T04:17:32;100442.59;;;15.81;60.32
26859;BME280;14429;48.346;16.338;2023-05-19T04:19:58;100446.03;;;15.83;60.03
26859;BME280;14429;48.346;16.338;2023-05-19T04:22:23;100446.03;;;15.83;60.20
26859;BME280;14429;48.346;16.338;2023-05-19T04:24:48;100448.09;;;15.79;60.16
26859;BME280;14429;48.346;16.338;2023-05-19T04:27:14;100450.88;;;15.78;60.27
26859;BME280;14429;48.346;16.338;2023-05-19T04:29:39;100457.03;;;15.80;60.31
26859;BME280;14429;48.346;16.338;2023-05-19T04:32:06;100447.38;;;15.88;59.93
26859;BME280;14429;48.346;16.338;2023-05-19T04:34:33;100457.53;;;15.95;59.68
26859;BME280;14429;48.346;16.338;2023-05-19T04:36:58;100452.16;;;15.95;59.62
26859;BME280;14429;48.346;16.338;2023-05-19T04:39:24;100446.75;;;15.95;59.56
26859;BME280;14429;48.346;16.338;2023-05-19T04:41:49;100443.31;;;15.93;59.84
26859;BME280;14429;48.346;16.338;2023-05-19T04:44:14;100450.69;;;15.91;59.62
26859;BME280;14429;48.346;16.338;2023-05-19T04:46:40;100450.19;;;15.87;59.79
26859;BME280;14429;48.346;16.338;2023-05-19T04:49:05;100445.66;;;15.87;59.79
26859;BME280;14429;48.346;16.338;2023-05-19T04:51:32;100439.69;;;15.94;59.55
26859;BME280;14429;48.346;16.338;2023-05-19T04:53:58;100441.25;;;15.97;59.67
26859;BME280;14429;48.346;16.338;2023-05-19T04:56:23;100441.16;;;15.98;59.47
26859;BME280;14429;48.346;16.338;2023-05-19T04:58:49;100440.31;;;15.98;59.43
26859;BME280;14429;48.346;16.338;2023-05-19T05:01:14;100440.66;;;16.04;59.26
26859;BME280;14429;48.346;16.338;2023-05-19T05:03:40;100445.97;;;16.17;58.87
26859;BME280;14429;48.346;16.338;2023-05-19T05:06:05;100441.19;;;16.09;58.86
26859;BME280;14429;48.346;16.338;2023-05-19T05:08:32;100436.53;;;16.11;58.79
26859;BME280;14429;48.346;16.338;2023-05-19T05:10:58;100438.50;;;16.09;58.91
26859;BME280;14429;48.346;16.338;2023-05-19T05:13:24;100454.84;;;16.06;58.97
26859;BME280;14429;48.346;16.338;2023-05-19T05:15:50;100444.75;;;16.10;58.92
26859;BME280;14429;48.346;16.338;2023-05-19T05:18:16;100455.72;;;16.07;58.93
26859;BME280;14429;48.346;16.338;2023-05-19T05:20:42;100445.31;;;16.02;59.11
26859;BME280;14429;48.346;16.338;2023-05-19T05:23:08;100448.00;;;16.02;59.18
26859;BME280;14429;48.346;16.338;2023-05-19T05:25:36;100445.91;;;15.95;59.34
26859;BME280;14429;48.346;16.338;2023-05-19T05:28:02;100451.91;;;15.98;59.28
26859;BME280;14429;48.346;16.338;2023-05-19T05:30:27;100454.25;;;16.03;59.16
26859;BME280;14429;48.346;16.338;2023-05-19T05:32:53;100452.41;;;16.03;59.02
26859;BME280;14429;48.346;16.338;2023-05-19T05:35:19;100446.78;;;16.06;58.98
26859;BME280;14429;48.346;16.338;2023-05-19T05:37:46;100452.16;;;15.95;58.51
26859;BME280;14429;48.346;16.338;2023-05-19T05:40:12;100448.25;;;15.99;59.21
26859;BME280;14429;48.346;16.338;2023-05-19T05:42:38;100453.84;;;15.96;59.12
26859;BME280;14429;48.346;16.338;2023-05-19T05:45:05;100458.63;;;15.93;59.70
26859;BME280;14429;48.346;16.338;2023-05-19T05:47:31;100455.06;;;15.92;59.43
26859;BME280;14429;48.346;16.338;2023-05-19T05:49:57;100456.69;;;15.95;59.38
26859;BME280;14429;48.346;16.338;2023-05-19T05:52:28;100451.13;;;15.86;58.23
26859;BME280;14429;48.346;16.338;2023-05-19T05:54:54;100448.47;;;15.96;59.14
26859;BME280;14429;48.346;16.338;2023-05-19T05:57:20;100454.25;;;16.03;59.10
26859;BME280;14429;48.346;16.338;2023-05-19T05:59:47;100463.91;;;16.05;58.88
26859;BME280;14429;48.346;16.338;2023-05-19T06:02:12;100464.75;;;16.06;58.81
26859;BME280;14429;48.346;16.338;2023-05-19T06:04:37;100460.66;;;16.13;58.74
26859;BME280;14429;48.346;16.338;2023-05-19T06:07:03;100465.41;;;16.09;58.85
26859;BME280;14429;48.346;16.338;2023-05-19T06:09:29;100467.56;;;16.04;58.98
26859;BME280;14429;48.346;16.338;2023-05-19T06:11:56;100468.06;;;15.98;59.35
26859;BME280;14429;48.346;16.338;2023-05-19T06:14:22;100470.94;;;15.85;58.49
26859;BME280;14429;48.346;16.338;2023-05-19T06:16:48;100468.06;;;15.98;59.12
26859;BME280;14429;48.346;16.338;2023-05-19T06:19:14;100462.69;;;15.98;59.24
26859;BME280;14429;48.346;16.338;2023-05-19T06:21:39;100467.91;;;15.89;59.52
26859;BME280;14429;48.346;16.338;2023-05-19T06:24:05;100467.91;;;15.89;59.76
26859;BME280;14429;48.346;16.338;2023-05-19T06:26:31;100463.38;;;15.90;59.85
26859;BME280;14429;48.346;16.338;2023-05-19T06:28:56;100459.97;;;15.88;59.76
26859;BME280;14429;48.346;16.338;2023-05-19T06:31:21;100466.94;;;15.90;59.73
26859;BME280;14429;48.346;16.338;2023-05-19T06:33:49;100470.13;;;15.95;59.43
26859;BME280;14429;48.346;16.338;2023-05-19T06:36:14;100460.94;;;15.97;59.34
26859;BME280;14429;48.346;16.338;2023-05-19T06:38:40;100464.00;;;15.48;56.52
26859;BME280;14429;48.346;16.338;2023-05-19T06:41:05;100464.94;;;15.81;59.84
26859;BME280;14429;48.346;16.338;2023-05-19T06:43:31;100472.31;;;15.79;58.92
26859;BME280;14429;48.346;16.338;2023-05-19T06:45:56;100466.72;;;15.59;57.12
26859;BME280;14429;48.346;16.338;2023-05-19T06:48:21;100468.72;;;15.68;59.22
26859;BME280;14429;48.346;16.338;2023-05-19T06:50:48;100470.94;;;15.85;59.79
26859;BME280;14429;48.346;16.338;2023-05-19T06:53:15;100467.78;;;15.80;58.93
26859;BME280;14429;48.346;16.338;2023-05-19T06:55:41;100469.47;;;15.81;58.50
26859;BME280;14429;48.346;16.338;2023-05-19T06:58:06;100470.50;;;15.91;59.16
26859;BME280;14429;48.346;16.338;2023-05-19T07:00:31;100472.75;;;15.73;57.15
26859;BME280;14429;48.346;16.338;2023-05-19T07:02:57;100479.47;;;15.79;58.12
26859;BME280;14429;48.346;16.338;2023-05-19T07:05:22;100472.53;;;15.76;57.45
26859;BME280;14429;48.346;16.338;2023-05-19T07:07:49;100476.94;;;15.77;59.22
26859;BME280;14429;48.346;16.338;2023-05-19T07:10:14;100477.44;;;15.93;59.45
26859;BME280;14429;48.346;16.338;2023-05-19T07:12:40;100483.09;;;16.01;58.59
26859;BME280;14429;48.346;16.338;2023-05-19T07:15:06;100480.56;;;16.10;59.15
26859;BME280;14429;48.346;16.338;2023-05-19T07:17:31;100481.28;;;16.12;58.70
26859;BME280;14429;48.346;16.338;2023-05-19T07:19:57;100481.69;;;16.18;58.82
26859;BME280;14429;48.346;16.338;2023-05-19T07:22:22;100480.47;;;16.22;58.62
26859;BME280;14429;48.346;16.338;2023-05-19T07:24:49;100476.06;;;16.21;58.65
26859;BME280;14429;48.346;16.338;2023-05-19T07:27:14;100474.22;;;16.11;57.85
26859;BME280;14429;48.346;16.338;2023-05-19T07:29:40;100476.19;;;16.09;57.68
26859;BME280;14429;48.346;16.338;2023-05-19T07:32:05;100470.69;;;16.21;58.42
26859;BME280;14429;48.346;16.338;2023-05-19T07:34:31;100473.84;;;16.26;58.64
26859;BME280;14429;48.346;16.338;2023-05-19T07:36:56;100478.09;;;16.07;55.90
26859;BME280;14429;48.346;16.338;2023-05-19T07:39:23;100473.66;;;15.95;56.05
26859;BME280;14429;48.346;16.338;2023-05-19T07:41:50;100479.59;;;16.11;58.18
26859;BME280;14429;48.346;16.338;2023-05-19T07:44:15;100491.38;;;16.21;58.46
26859;BME280;14429;48.346;16.338;2023-05-19T07:46:41;100491.13;;;16.24;58.63
26859;BME280;14429;48.346;16.338;2023-05-19T07:49:06;100497.34;;;16.14;58.85
26859;BME280;14429;48.346;16.338;2023-05-19T07:51:32;100495.03;;;16.09;58.99
26859;BME280;14429;48.346;16.338;2023-05-19T07:53:57;100498.94;;;16.16;58.88
26859;BME280;14429;48.346;16.338;2023-05-19T07:56:22;100486.06;;;15.75;57.74
26859;BME280;14429;48.346;16.338;2023-05-19T07:58:49;100494.66;;;15.80;58.26
26859;BME280;14429;48.346;16.338;2023-05-19T08:01:15;100485.31;;;15.62;58.13
26859;BME280;14429;48.346;16.338;2023-05-19T08:03:41;100475.84;;;15.80;59.32
26859;BME280;14429;48.346;16.338;2023-05-19T08:06:06;100474.09;;;15.79;58.26
26859;BME280;14429;48.346;16.338;2023-05-19T08:08:32;100458.09;;;15.77;58.86
26859;BME280;14429;48.346;16.338;2023-05-19T08:11:00;100470.31;;;15.70;58.94
26859;BME280;14429;48.346;16.338;2023-05-19T08:13:26;100474.25;;;15.77;59.60
26859;BME280;14429;48.346;16.338;2023-05-19T08:15:53;100478.97;;;15.63;59.57
26859;BME280;14429;48.346;16.338;2023-05-19T08:18:18;100486.63;;;15.46;60.13
26859;BME280;14429;48.346;16.338;2023-05-19T08:20:44;100494.00;;;15.65;59.83
26859;BME280;14429;48.346;16.338;2023-05-19T08:23:09;100486.03;;;15.53;60.35
26859;BME280;14429;48.346;16.338;2023-05-19T08:25:34;100481.81;;;15.38;60.30
26859;BME280;14429;48.346;16.338;2023-05-19T08:28:00;100489.63;;;15.41;60.59
26859;BME280;14429;48.346;16.338;2023-05-19T08:30:25;100485.44;;;15.37;61.22
26859;BME280;14429;48.346;16.338;2023-05-19T08:32:52;100486.34;;;15.72;60.70
26859;BME280;14429;48.346;16.338;2023-05-19T08:35:18;100483.31;;;15.87;60.20
26859;BME280;14429;48.346;16.338;2023-05-19T08:37:43;100483.91;;;15.80;59.84
26859;BME280;14429;48.346;16.338;2023-05-19T08:40:10;100474.63;;;15.84;60.06
26859;BME280;14429;48.346;16.338;2023-05-19T08:42:40;100469.47;;;15.81;60.25
26859;BME280;14429;48.346;16.338;2023-05-19T08:45:06;100467.25;;;15.64;60.53
26859;BME280;14429;48.346;16.338;2023-05-19T08:47:32;100469.78;;;15.55;61.22
26859;BME280;14429;48.346;16.338;2023-05-19T08:50:03;100468.22;;;15.74;61.81
26859;BME280;14429;48.346;16.338;2023-05-19T08:52:33;100470.56;;;15.44;61.98
26859;BME280;14429;48.346;16.338;2023-05-19T08:55:03;100460.13;;;15.63;61.61
26859;BME280;14429;48.346;16.338;2023-05-19T08:57:29;100457.38;;;15.75;61.10
26859;BME280;14429;48.346;16.338;2023-05-19T08:59:55;100458.00;;;15.90;60.58
26859;BME280;14429;48.346;16.338;2023-05-19T09:02:21;100458.78;;;16.02;60.19
26859;BME280;14429;48.346;16.338;2023-05-19T09:04:47;100456.47;;;16.09;60.28
26859;BME280;14429;48.346;16.338;2023-05-19T09:07:14;100453.44;;;16.24;61.09
26859;BME280;14429;48.346;16.338;2023-05-19T09:09:40;100449.75;;;16.25;60.83
26859;BME280;14429;48.346;16.338;2023-05-19T09:12:05;100447.78;;;16.27;60.11
26859;BME280;14429;48.346;16.338;2023-05-19T09:14:33;100437.16;;;16.36;60.58
26859;BME280;14429;48.346;16.338;2023-05-19T09:16:58;100442.03;;;16.42;59.96
26859;BME280;14429;48.346;16.338;2023-05-19T09:19:27;100430.31;;;16.54;60.50
26859;BME280;14429;48.346;16.338;2023-05-19T09:21:57;100434.22;;;16.50;59.27
26859;BME280;14429;48.346;16.338;2023-05-19T09:24:24;100429.94;;;16.47;58.77
26859;BME280;14429;48.346;16.338;2023-05-19T09:26:50;100429.41;;;16.64;60.33
26859;BME280;14429;48.346;16.338;2023-05-19T09:29:16;100430.75;;;16.70;60.70
26859;BME280;14429;48.346;16.338;2023-05-19T09:31:48;100426.44;;;16.78;60.41
26859;BME280;14429;48.346;16.338;2023-05-19T09:34:14;100424.84;;;16.75;59.70
26859;BME280;14429;48.346;16.338;2023-05-19T09:36:39;100424.28;;;16.72;58.97
26859;BME280;14429;48.346;16.338;2023-05-19T09:39:12;100420.34;;;16.76;58.78
26859;BME280;14429;48.346;16.338;2023-05-19T09:41:38;100421.81;;;16.80;59.20
26859;BME280;14429;48.346;16.338;2023-05-19T09:44:04;100418.72;;;16.84;60.20
26859;BME280;14429;48.346;16.338;2023-05-19T09:46:29;100419.34;;;16.88;59.95
26859;BME280;14429;48.346;16.338;2023-05-19T09:48:56;100419.66;;;16.94;60.60
26859;BME280;14429;48.346;16.338;2023-05-19T09:51:21;100410.47;;;16.97;60.54
26859;BME280;14429;48.346;16.338;2023-05-19T09:53:48;100405.09;;;17.07;60.19
26859;BME280;14429;48.346;16.338;2023-05-19T09:56:14;100405.81;;;16.99;59.46
26859;BME280;14429;48.346;16.338;2023-05-19T09:58:41;100409.22;;;17.00;58.94
26859;BME280;14429;48.346;16.338;2023-05-19T10:01:07;100413.91;;;16.99;60.02
26859;BME280;14429;48.346;16.338;2023-05-19T10:03:33;100405.31;;;17.04;59.87
26859;BME280;14429;48.346;16.338;2023-05-19T10:05:59;100405.09;;;17.07;59.88
26859;BME280;14429;48.346;16.338;2023-05-19T10:08:25;100405.19;;;17.06;59.60
26859;BME280;14429;48.346;16.338;2023-05-19T10:10:52;100407.00;;;17.16;58.95
26859;BME280;14429;48.346;16.338;2023-05-19T10:13:18;100399.19;;;17.13;57.58
26859;BME280;14429;48.346;16.338;2023-05-19T10:15:46;100402.09;;;17.21;58.19
26859;BME280;14429;48.346;16.338;2023-05-19T10:18:14;100406.13;;;17.16;58.99
26859;BME280;14429;48.346;16.338;2023-05-19T10:20:42;100404.75;;;17.32;59.78
26859;BME280;14429;48.346;16.338;2023-05-19T10:23:08;100398.91;;;17.16;57.61
26859;BME280;14429;48.346;16.338;2023-05-19T10:25:34;100397.19;;;17.15;59.60
26859;BME280;14429;48.346;16.338;2023-05-19T10:28:02;100395.50;;;17.14;59.85
26859;BME280;14429;48.346;16.338;2023-05-19T10:30:32;100392.28;;;17.20;59.68
26859;BME280;14429;48.346;16.338;2023-05-19T10:33:00;100396.00;;;17.08;58.67
26859;BME280;14429;48.346;16.338;2023-05-19T10:35:39;100391.63;;;17.27;60.39
26859;BME280;14429;48.346;16.338;2023-05-19T10:38:14;100395.06;;;17.29;59.16
26859;BME280;14429;48.346;16.338;2023-05-19T10:40:51;100385.13;;;17.30;58.46
26859;BME280;14429;48.346;16.338;2023-05-19T10:43:24;100393.16;;;17.41;59.98
26859;BME280;14429;48.346;16.338;2023-05-19T10:45:56;100380.41;;;17.43;60.10
26859;BME280;14429;48.346;16.338;2023-05-19T10:48:23;100387.25;;;17.47;59.28
26859;BME280;14429;48.346;16.338;2023-05-19T10:50:52;100368.63;;;17.64;60.56
26859;BME280;14429;48.346;16.338;2023-05-19T10:53:18;100377.09;;;18.00;61.21
26859;BME280;14429;48.346;16.338;2023-05-19T10:55:44;100377.16;;;17.89;60.52
26859;BME280;14429;48.346;16.338;2023-05-19T10:58:10;100372.75;;;17.88;59.52
26859;BME280;14429;48.346;16.338;2023-05-19T11:00:38;100374.28;;;17.81;57.26
26859;BME280;14429;48.346;16.338;2023-05-19T11:03:13;100376.84;;;17.62;57.25
26859;BME280;14429;48.346;16.338;2023-05-19T11:05:40;100375.16;;;17.91;60.32
26859;BME280;14429;48.346;16.338;2023-05-19T11:08:06;100373.00;;;17.85;59.24
26859;BME280;14429;48.346;16.338;2023-05-19T11:10:31;100364.06;;;18.05;58.98
26859;BME280;14429;48.346;16.338;2023-05-19T11:12:57;100370.13;;;18.27;59.45
26859;BME280;14429;48.346;16.338;2023-05-19T11:15:25;100369.94;;;18.19;59.46
26859;BME280;14429;48.346;16.338;2023-05-19T11:17:51;100364.09;;;18.14;59.38
26859;BME280;14429;48.346;16.338;2023-05-19T11:20:21;100360.66;;;18.12;60.16
26859;BME280;14429;48.346;16.338;2023-05-19T11:23:03;100368.91;;;18.10;58.52
26859;BME280;14429;48.346;16.338;2023-05-19T11:25:40;100365.16;;;18.02;59.55
26859;BME280;14429;48.346;16.338;2023-05-19T11:28:05;100361.94;;;18.08;59.60
26859;BME280;14429;48.346;16.338;2023-05-19T11:30:31;100373.72;;;18.07;59.79
26859;BME280;14429;48.346;16.338;2023-05-19T11:32:57;100359.63;;;18.33;61.02
26859;BME280;14429;48.346;16.338;2023-05-19T11:35:23;100356.41;;;18.58;60.98
26859;BME280;14429;48.346;16.338;2023-05-19T11:37:49;100360.09;;;18.47;60.37
26859;BME280;14429;48.346;16.338;2023-05-19T11:40:20;100365.59;;;18.36;59.65
26859;BME280;14429;48.346;16.338;2023-05-19T11:42:45;100359.34;;;18.36;59.75
26859;BME280;14429;48.346;16.338;2023-05-19T11:45:11;100357.94;;;18.41;59.49
26859;BME280;14429;48.346;16.338;2023-05-19T11:47:36;100356.06;;;18.33;60.75
26859;BME280;14429;48.346;16.338;2023-05-19T11:50:02;100356.34;;;18.39;60.87
26859;BME280;14429;48.346;16.338;2023-05-19T11:52:28;100361.59;;;18.31;58.55
26859;BME280;14429;48.346;16.338;2023-05-19T11:54:53;100363.59;;;18.29;59.77
26859;BME280;14429;48.346;16.338;2023-05-19T11:57:20;100349.66;;;18.34;61.25
26859;BME280;14429;48.346;16.338;2023-05-19T11:59:45;100351.34;;;18.25;60.86
26859;BME280;14429;48.346;16.338;2023-05-19T12:02:18;100340.84;;;18.32;61.59
26859;BME280;14429;48.346;16.338;2023-05-19T12:04:44;100344.53;;;18.31;62.21
26859;BME280;14429;48.346;16.338;2023-05-19T12:07:10;100355.22;;;18.32;61.67
26859;BME280;14429;48.346;16.338;2023-05-19T12:09:35;100341.16;;;18.38;59.96
26859;BME280;14429;48.346;16.338;2023-05-19T12:12:01;100349.31;;;18.57;60.25
26859;BME280;14429;48.346;16.338;2023-05-19T12:14:29;100337.06;;;18.53;61.55
26859;BME280;14429;48.346;16.338;2023-05-19T12:16:54;100346.56;;;18.38;60.86
26859;BME280;14429;48.346;16.338;2023-05-19T12:19:21;100337.03;;;18.34;61.72
26859;BME280;14429;48.346;16.338;2023-05-19T12:21:47;100339.75;;;18.43;62.36
26859;BME280;14429;48.346;16.338;2023-05-19T12:24:12;100344.00;;;18.46;61.92
26859;BME280;14429;48.346;16.338;2023-05-19T12:26:39;100348.81;;;18.33;59.57
26859;BME280;14429;48.346;16.338;2023-05-19T12:29:05;100339.47;;;18.46;60.66
26859;BME280;14429;48.346;16.338;2023-05-19T12:31:32;100339.59;;;18.45;61.33
26859;BME280;14429;48.346;16.338;2023-05-19T12:33:58;100344.59;;;18.40;61.39
26859;BME280;14429;48.346;16.338;2023-05-19T12:36:24;100344.06;;;18.55;61.59
26859;BME280;14429;48.346;16.338;2023-05-19T12:38:52;100336.31;;;18.32;61.17
26859;BME280;14429;48.346;16.338;2023-05-19T12:41:18;100339.97;;;18.22;60.29